Time;durP1;ratioP1;P1;durP2;ratioP2;P2;SDS_P1;SDS_P2;PMS_P1;PMS_P2;Temp;Humidity;BMP_temperature;BMP_pressure;BME280_temperature;BME280_humidity;BME280_pressure;Samples;Min_cycle;Max_cycle;Signal;HPM_P1;HPM_P2
2023/09/15 00:01:04;;;;;;;7.47;4.80;;;10.60;99.90;;;;;;5119113;28;20883;-58
2023/09/15 00:03:31;;;;;;;8.70;5.40;;;10.60;99.90;;;;;;5118514;28;20714;-58
2023/09/15 00:06:00;;;;;;;7.43;5.33;;;10.50;99.90;;;;;;5119249;28;20820;-58
2023/09/15 00:08:28;;;;;;;6.17;5.20;;;10.50;99.90;;;;;;5119393;28;20456;-58
2023/09/15 00:10:55;;;;;;;5.17;4.50;;;10.50;99.90;;;;;;5119345;28;20891;-58
2023/09/15 00:13:22;;;;;;;11.20;5.40;;;10.40;99.90;;;;;;5119641;28;20487;-58
2023/09/15 00:15:51;;;;;;;6.77;4.73;;;10.50;99.90;;;;;;5119786;28;20452;-58
2023/09/15 00:18:19;;;;;;;6.03;4.90;;;10.40;99.90;;;;;;5119124;28;20550;-58
2023/09/15 00:20:46;;;;;;;8.97;5.57;;;10.40;99.80;;;;;;5119171;28;20452;-58
2023/09/15 00:23:15;;;;;;;8.33;6.40;;;10.40;78.20;;;;;;5119231;28;20526;-58
2023/09/15 00:25:45;;;;;;;6.90;5.47;;;10.30;72.70;;;;;;5119180;28;20471;-59
2023/09/15 00:28:13;;;;;;;8.03;5.17;;;10.20;99.90;;;;;;5118915;28;20512;-58
2023/09/15 00:30:41;;;;;;;6.50;5.30;;;10.20;99.90;;;;;;5117960;28;21045;-59
2023/09/15 00:33:08;;;;;;;6.20;5.23;;;10.20;99.90;;;;;;5118815;28;20491;-59
2023/09/15 00:35:36;;;;;;;9.90;6.33;;;10.20;99.90;;;;;;5119204;28;20550;-58
2023/09/15 00:38:03;;;;;;;8.13;5.80;;;10.20;99.90;;;;;;5118412;28;20434;-58
2023/09/15 00:40:32;;;;;;;8.90;5.53;;;10.20;99.90;;;;;;5118312;28;20532;-59
2023/09/15 00:42:59;;;;;;;6.43;5.10;;;10.20;99.90;;;;;;5118545;28;20497;-58
2023/09/15 00:45:27;;;;;;;6.37;5.30;;;10.20;99.90;;;;;;5118734;28;20772;-58
2023/09/15 00:47:57;;;;;;;8.13;4.77;;;10.20;99.90;;;;;;5118806;28;20430;-58
2023/09/15 00:50:26;;;;;;;8.27;5.60;;;10.20;99.90;;;;;;5118515;28;20553;-58
2023/09/15 00:52:57;;;;;;;7.50;5.30;;;10.20;99.90;;;;;;5118376;28;20462;-58
2023/09/15 00:55:26;;;;;;;7.37;5.60;;;10.20;99.90;;;;;;5118787;28;20512;-59
2023/09/15 00:57:57;;;;;;;7.47;5.40;;;10.10;99.90;;;;;;5117758;28;20466;-58
2023/09/15 01:00:26;;;;;;;6.50;4.97;;;10.10;99.90;;;;;;5117787;28;20503;-58
2023/09/15 01:02:53;;;;;;;8.40;5.20;;;10.10;99.90;;;;;;5118040;28;20488;-59
2023/09/15 01:05:24;;;;;;;7.13;5.70;;;10.00;99.90;;;;;;5118080;28;20794;-59
2023/09/15 01:07:52;;;;;;;7.10;4.53;;;10.00;99.90;;;;;;5118294;28;20495;-58
2023/09/15 01:10:19;;;;;;;7.83;5.27;;;10.00;99.90;;;;;;5118396;28;20465;-58
2023/09/15 01:12:48;;;;;;;6.03;4.50;;;10.00;99.90;;;;;;5117756;28;20843;-58
2023/09/15 01:15:18;;;;;;;7.50;5.50;;;10.00;99.90;;;;;;5117735;28;20455;-58
2023/09/15 01:17:52;;;;;;;9.13;5.60;;;9.90;99.90;;;;;;5117951;28;20505;-59
2023/09/15 01:20:29;;;;;;;7.50;5.27;;;9.90;99.90;;;;;;5117810;28;20456;-58
2023/09/15 01:23:15;;;;;;;5.43;4.90;;;9.80;99.90;;;;;;5118399;28;20526;-58
2023/09/15 01:26:21;;;;;;;9.43;5.10;;;9.80;99.90;;;;;;5118426;28;20746;-58
2023/09/15 01:29:06;;;;;;;5.67;4.77;;;9.70;99.90;;;;;;5083621;28;20870;-59
2023/09/15 01:31:37;;;;;;;7.60;5.43;;;9.80;99.90;;;;;;5118421;28;20876;-58
2023/09/15 01:34:05;;;;;;;6.10;4.97;;;9.80;99.90;;;;;;5117996;28;20544;-59
2023/09/15 01:36:33;;;;;;;6.70;4.80;;;9.70;99.90;;;;;;5117274;28;20447;-58
2023/09/15 01:39:01;;;;;;;5.40;4.50;;;9.70;99.90;;;;;;5117989;28;20948;-58
2023/09/15 01:41:28;;;;;;;6.30;4.63;;;9.70;99.90;;;;;;5099388;28;20991;-58
2023/09/15 01:43:55;;;;;;;11.50;4.83;;;9.60;99.90;;;;;;5097408;28;20485;-59
2023/09/15 01:46:23;;;;;;;5.73;5.03;;;9.60;1.00;;;;;;5097105;28;20468;-58
2023/09/15 01:48:54;;;;;;;6.67;5.03;;;9.60;1.00;;;;;;5097491;28;20440;-58
2023/09/15 01:51:22;;;;;;;6.97;4.97;;;9.60;1.00;;;;;;5097414;28;20456;-58
2023/09/15 01:53:51;;;;;;;6.40;4.97;;;9.50;99.90;;;;;;5097175;28;20768;-58
2023/09/15 01:56:18;;;;;;;9.03;5.53;;;9.50;1.00;;;;;;5097291;28;20747;-58
2023/09/15 01:58:46;;;;;;;6.47;5.00;;;9.40;1.00;;;;;;5097289;28;20484;-59
2023/09/15 02:01:13;;;;;;;7.77;5.40;;;9.40;1.00;;;;;;5097244;28;20460;-58
2023/09/15 02:03:40;;;;;;;6.17;5.13;;;9.40;1.00;;;;;;5097309;28;20467;-59
2023/09/15 02:06:16;;;;;;;7.53;4.97;;;9.40;1.00;;;;;;5097005;28;20906;-58
2023/09/15 02:08:43;;;;;;;6.40;5.00;;;9.40;1.00;;;;;;5096989;28;20460;-59
2023/09/15 02:11:11;;;;;;;8.40;5.50;;;9.40;1.00;;;;;;5096807;28;20509;-59
2023/09/15 02:13:38;;;;;;;8.33;5.20;;;9.40;1.00;;;;;;5096337;28;20460;-59
2023/09/15 02:16:06;;;;;;;6.57;5.07;;;9.40;1.00;;;;;;5096886;28;20488;-59
2023/09/15 02:18:33;;;;;;;8.47;5.57;;;9.40;1.00;;;;;;5097019;28;20766;-58
2023/09/15 02:21:00;;;;;;;9.63;5.20;;;9.30;1.00;;;;;;5096951;28;20461;-59
2023/09/15 02:23:29;;;;;;;8.70;5.20;;;9.30;1.00;;;;;;5096563;28;20993;-59
2023/09/15 02:25:57;;;;;;;6.97;5.57;;;9.30;1.00;;;;;;5097707;28;20482;-58
2023/09/15 02:28:24;;;;;;;5.60;4.63;;;9.30;1.00;;;;;;5100972;28;20814;-59
2023/09/15 02:30:51;;;;;;;7.80;5.03;;;9.20;1.00;;;;;;5098212;28;20464;-59
2023/09/15 02:33:19;;;;;;;9.03;4.87;;;9.20;1.00;;;;;;5100965;28;20461;-59
2023/09/15 02:35:48;;;;;;;7.57;5.67;;;9.20;1.00;;;;;;5101085;28;20466;-58
2023/09/15 02:38:15;;;;;;;9.37;5.70;;;9.20;1.00;;;;;;5100976;28;20502;-59
2023/09/15 02:40:43;;;;;;;9.23;5.87;;;9.20;1.00;;;;;;5100401;28;20483;-59
2023/09/15 02:43:10;;;;;;;6.67;5.17;;;9.20;1.00;;;;;;5100596;28;20510;-59
2023/09/15 02:45:38;;;;;;;8.63;6.10;;;9.10;1.00;;;;;;5100071;28;20453;-58
2023/09/15 02:48:06;;;;;;;8.93;5.87;;;9.10;1.00;;;;;;5100333;28;20464;-58
2023/09/15 02:50:34;;;;;;;6.27;5.20;;;9.10;1.00;;;;;;5100157;28;20465;-58
2023/09/15 02:53:02;;;;;;;5.83;5.23;;;9.10;99.90;;;;;;5100421;28;20448;-58
2023/09/15 02:55:29;;;;;;;11.80;5.50;;;9.00;92.50;;;;;;5100463;28;20464;-58
2023/09/15 02:57:57;;;;;;;8.53;6.10;;;9.00;3.50;;;;;;5100159;28;20543;-58
2023/09/15 03:00:24;;;;;;;7.97;5.23;;;9.00;33.10;;;;;;5099718;28;20456;-59
2023/09/15 03:02:52;;;;;;;7.00;5.43;;;9.00;99.90;;;;;;5100040;28;20498;-58
2023/09/15 03:05:21;;;;;;;7.03;5.70;;;9.00;79.70;;;;;;5100146;28;20498;-59
2023/09/15 03:07:49;;;;;;;9.87;6.50;;;9.00;88.50;;;;;;5099417;28;20549;-58
2023/09/15 03:10:16;;;;;;;7.03;5.13;;;8.90;93.70;;;;;;5099954;28;20558;-58
2023/09/15 03:12:44;;;;;;;7.50;6.00;;;9.00;98.40;;;;;;5100334;28;20492;-59
2023/09/15 03:15:13;;;;;;;8.17;6.17;;;8.90;49.20;;;;;;5099878;28;20844;-59
2023/09/15 03:17:40;;;;;;;6.17;5.07;;;8.90;17.40;;;;;;5099272;28;20570;-59
2023/09/15 03:20:13;;;;;;;10.50;5.40;;;8.90;1.00;;;;;;5099047;28;20466;-58
2023/09/15 03:22:40;;;;;;;9.97;5.67;;;8.80;1.00;;;;;;5098050;28;20484;-59
2023/09/15 03:25:08;;;;;;;6.97;5.03;;;8.90;1.00;;;;;;5098840;28;20466;-58
2023/09/15 03:27:36;;;;;;;8.73;5.90;;;8.90;1.00;;;;;;5098130;28;20485;-59
2023/09/15 03:30:04;;;;;;;8.00;6.03;;;8.90;1.00;;;;;;5097916;28;20461;-59
2023/09/15 03:32:33;;;;;;;8.00;5.63;;;8.90;1.00;;;;;;5098201;28;20457;-59
2023/09/15 03:35:01;;;;;;;7.10;5.27;;;8.90;1.00;;;;;;5098336;28;20788;-59
2023/09/15 03:37:30;;;;;;;8.23;5.83;;;8.90;1.00;;;;;;5097904;28;20461;-59
2023/09/15 03:39:57;;;;;;;6.43;4.93;;;8.90;1.00;;;;;;5098550;28;20481;-58
2023/09/15 03:42:24;;;;;;;9.20;5.17;;;8.80;1.00;;;;;;5099498;28;20745;-59
2023/09/15 03:44:51;;;;;;;8.00;5.57;;;8.80;1.00;;;;;;5099315;28;20567;-59
2023/09/15 03:47:20;;;;;;;7.90;5.77;;;8.70;1.00;;;;;;5098405;28;20559;-58
2023/09/15 03:49:49;;;;;;;6.10;5.20;;;8.70;1.00;;;;;;5099337;28;20435;-59
2023/09/15 03:52:16;;;;;;;10.50;5.50;;;8.70;1.00;;;;;;5099524;28;20463;-58
2023/09/15 03:54:43;;;;;;;8.20;5.87;;;8.70;3.70;;;;;;5099361;28;20922;-59
2023/09/15 03:57:11;;;;;;;10.57;5.20;;;8.70;83.50;;;;;;5099621;28;20442;-58
2023/09/15 03:59:38;;;;;;;8.73;5.43;;;8.70;99.70;;;;;;5099176;28;20852;-59
2023/09/15 04:02:05;;;;;;;6.17;5.27;;;8.70;99.90;;;;;;5098979;28;20546;-58
2023/09/15 04:04:32;;;;;;;10.37;6.07;;;8.70;99.90;;;;;;5098835;28;20567;-59
2023/09/15 04:07:01;;;;;;;6.40;5.30;;;8.70;99.90;;;;;;5098255;28;20812;-58
2023/09/15 04:09:28;;;;;;;8.53;5.10;;;8.70;57.50;;;;;;5099472;28;20530;-59
2023/09/15 04:11:56;;;;;;;6.57;5.53;;;8.70;29.90;;;;;;5098395;28;20452;-58
2023/09/15 04:14:23;;;;;;;9.23;4.80;;;8.60;56.90;;;;;;5098919;28;20486;-59
2023/09/15 04:16:50;;;;;;;7.30;5.47;;;8.70;91.30;;;;;;5098966;28;20530;-59
2023/09/15 04:19:17;;;;;;;6.40;5.47;;;8.70;27.70;;;;;;5099248;28;20835;-59
2023/09/15 04:21:45;;;;;;;6.70;5.40;;;8.70;15.10;;;;;;5099206;28;20496;-59
2023/09/15 04:24:13;;;;;;;7.40;5.50;;;8.70;20.20;;;;;;5098747;28;20587;-59
2023/09/15 04:26:40;;;;;;;6.33;5.03;;;8.70;4.90;;;;;;5098845;28;20480;-59
2023/09/15 04:29:09;;;;;;;10.70;6.20;;;8.70;1.00;;;;;;5098609;28;20460;-59
2023/09/15 04:31:37;;;;;;;7.73;6.17;;;8.70;1.00;;;;;;5098461;28;20750;-60
2023/09/15 04:34:05;;;;;;;8.00;6.50;;;8.60;1.00;;;;;;5098349;28;20457;-59
2023/09/15 04:36:33;;;;;;;9.77;6.40;;;8.60;1.00;;;;;;5098309;28;20559;-59
2023/09/15 04:39:00;;;;;;;6.47;5.50;;;8.60;1.00;;;;;;5098443;28;20461;-59
2023/09/15 04:41:28;;;;;;;7.47;5.37;;;8.60;1.00;;;;;;5116509;28;20489;-59
2023/09/15 04:43:56;;;;;;;6.33;5.07;;;8.60;1.00;;;;;;5118757;28;20865;-59
2023/09/15 04:46:25;;;;;;;7.10;5.83;;;8.60;1.00;;;;;;5118927;28;20755;-59
2023/09/15 04:48:53;;;;;;;8.13;5.77;;;8.60;1.00;;;;;;5118107;28;20801;-59
2023/09/15 04:51:20;;;;;;;5.80;5.00;;;8.60;1.00;;;;;;5118824;28;20737;-60
2023/09/15 04:53:47;;;;;;;9.53;5.60;;;8.60;1.00;;;;;;5118733;28;20430;-59
2023/09/15 04:56:14;;;;;;;6.50;5.40;;;8.50;1.00;;;;;;5118302;28;20555;-60
2023/09/15 04:58:45;;;;;;;9.10;5.70;;;8.40;20.30;;;;;;5118358;28;20744;-59
2023/09/15 05:01:16;;;;;;;8.13;6.00;;;8.40;78.90;;;;;;5117861;28;20460;-60
2023/09/15 05:03:44;;;;;;;8.23;5.37;;;8.40;99.90;;;;;;5118876;28;20487;-59
2023/09/15 05:06:11;;;;;;;8.80;6.07;;;8.50;99.90;;;;;;5118628;28;20459;-59
2023/09/15 05:08:38;;;;;;;6.03;5.43;;;8.50;89.90;;;;;;5118798;28;20468;-60
2023/09/15 05:11:06;;;;;;;7.10;5.63;;;8.40;92.30;;;;;;5118361;28;20461;-60
2023/09/15 05:13:33;;;;;;;11.33;6.07;;;8.40;59.20;;;;;;5118363;28;20437;-59
2023/09/15 05:16:03;;;;;;;10.07;8.17;;;8.50;1.00;;;;;;5117934;28;20487;-60
2023/09/15 05:18:31;;;;;;;7.03;5.50;;;8.40;1.00;;;;;;5118451;28;20466;-60
2023/09/15 05:20:58;;;;;;;7.93;6.83;;;8.50;16.80;;;;;;5118413;28;20462;-59
2023/09/15 05:23:25;;;;;;;10.73;6.40;;;8.50;98.90;;;;;;5118323;28;20495;-59
2023/09/15 05:25:53;;;;;;;8.20;5.60;;;8.50;99.90;;;;;;5118234;28;20554;-59
2023/09/15 05:28:21;;;;;;;6.30;5.70;;;8.50;90.70;;;;;;5117643;28;20462;-59
2023/09/15 05:30:48;;;;;;;9.33;5.80;;;8.50;99.90;;;;;;5117192;28;20467;-60
2023/09/15 05:33:17;;;;;;;9.43;6.20;;;8.50;99.90;;;;;;5118018;28;20456;-59
2023/09/15 05:35:44;;;;;;;6.70;5.80;;;8.60;99.90;;;;;;5117948;28;20459;-59
2023/09/15 05:38:12;;;;;;;8.67;5.70;;;8.60;99.90;;;;;;5118047;28;20528;-59
2023/09/15 05:40:39;;;;;;;7.23;5.80;;;8.70;99.90;;;;;;5108669;28;21016;-60
2023/09/15 05:43:06;;;;;;;6.00;5.00;;;8.70;99.90;;;;;;5096574;28;20465;-61
2023/09/15 05:45:34;;;;;;;9.53;5.93;;;8.80;99.90;;;;;;5097422;28;20948;-60
2023/09/15 05:48:01;;;;;;;8.40;7.00;;;8.90;99.90;;;;;;5096805;28;20488;-61
2023/09/15 05:50:30;;;;;;;6.47;5.47;;;9.00;99.90;;;;;;5097313;28;20752;-60
2023/09/15 05:52:57;;;;;;;7.80;6.00;;;9.10;99.90;;;;;;5096281;28;20527;-60
2023/09/15 05:55:24;;;;;;;10.33;6.70;;;9.20;78.30;;;;;;5097607;28;20456;-61
2023/09/15 05:57:51;;;;;;;7.87;6.80;;;9.30;63.70;;;;;;5097366;28;20815;-61
2023/09/15 06:00:19;;;;;;;8.30;6.73;;;9.40;43.20;;;;;;5096691;28;20551;-61
2023/09/15 06:02:46;;;;;;;7.83;6.50;;;9.50;24.00;;;;;;5100992;28;20462;-60
2023/09/15 06:05:14;;;;;;;7.03;5.90;;;9.60;17.80;;;;;;5101367;28;20487;-61
2023/09/15 06:07:42;;;;;;;12.57;6.07;;;9.70;13.30;;;;;;5101650;28;20843;-62
2023/09/15 06:10:10;;;;;;;6.77;6.07;;;9.80;6.80;;;;;;5101587;28;20755;-62
2023/09/15 06:12:37;;;;;;;6.73;5.43;;;9.90;2.40;;;;;;5101505;28;20808;-62
2023/09/15 06:15:05;;;;;;;7.30;5.87;;;10.00;3.00;;;;;;5101374;28;20499;-63
2023/09/15 06:17:34;;;;;;;7.10;5.70;;;10.20;1.00;;;;;;5101443;28;20487;-63
2023/09/15 06:20:01;;;;;;;5.83;5.00;;;10.30;19.60;;;;;;5100937;28;20513;-63
2023/09/15 06:22:28;;;;;;;8.30;5.70;;;10.30;1.00;;;;;;5101046;28;20928;-63
2023/09/15 06:24:57;;;;;;;5.80;5.20;;;10.50;10.50;;;;;;5101245;28;20592;-63
2023/09/15 06:27:24;;;;;;;7.00;5.07;;;10.70;34.70;;;;;;5101539;28;20457;-63
2023/09/15 06:29:52;;;;;;;10.07;5.27;;;11.00;50.10;;;;;;5100670;28;20466;-64
2023/09/15 06:32:19;;;;;;;10.40;4.57;;;11.10;45.80;;;;;;5100570;28;20460;-64
2023/09/15 06:34:46;;;;;;;7.80;5.00;;;11.30;1.00;;;;;;5101090;28;20462;-64
2023/09/15 06:37:13;;;;;;;6.40;5.20;;;11.50;1.00;;;;;;5101144;28;20520;-64
2023/09/15 06:39:41;;;;;;;6.23;5.13;;;11.60;1.00;;;;;;5103163;28;20491;-63
2023/09/15 06:42:10;;;;;;;8.50;5.23;;;12.00;12.30;;;;;;5121127;28;20492;-64
2023/09/15 06:44:38;;;;;;;8.00;4.97;;;12.20;1.00;;;;;;5120978;28;20563;-63
2023/09/15 06:47:06;;;;;;;9.40;5.10;;;12.40;1.00;;;;;;5121010;28;20469;-63
2023/09/15 06:49:33;;;;;;;7.20;5.80;;;12.50;1.00;;;;;;5110276;28;20527;-63
2023/09/15 06:52:00;;;;;;;8.93;4.87;;;12.80;1.00;;;;;;5100101;28;20467;-62
2023/09/15 06:54:28;;;;;;;8.93;5.20;;;13.00;1.00;;;;;;5100352;28;20457;-62
2023/09/15 06:56:55;;;;;;;8.13;5.40;;;13.20;1.00;;;;;;5100570;28;20463;-62
2023/09/15 06:59:23;;;;;;;10.50;5.23;;;13.40;99.90;;;;;;5100385;28;20539;-62
2023/09/15 07:01:51;;;;;;;7.13;5.00;;;13.70;99.90;;;;;;5100544;28;20449;-62
2023/09/15 07:04:19;;;;;;;7.03;5.57;;;13.90;99.90;;;;;;5099387;28;20780;-62
2023/09/15 07:06:46;;;;;;;7.60;6.00;;;14.10;99.90;;;;;;5097054;28;20487;-62
2023/09/15 07:09:13;;;;;;;6.80;5.47;;;14.30;99.90;;;;;;5099213;28;20873;-62
2023/09/15 07:11:41;;;;;;;8.17;5.30;;;14.40;99.90;;;;;;5099135;28;20526;-61
2023/09/15 07:14:08;;;;;;;8.03;5.33;;;14.60;99.90;;;;;;5099692;28;20456;-61
2023/09/15 07:16:37;;;;;;;9.80;4.87;;;14.80;99.90;;;;;;5099496;28;20484;-60
2023/09/15 07:19:04;;;;;;;8.73;5.50;;;15.00;99.90;;;;;;5099446;28;20890;-60
2023/09/15 07:21:31;;;;;;;5.23;4.50;;;15.10;1.00;;;;;;5098361;28;20464;-60
2023/09/15 07:23:59;;;;;;;10.13;4.90;;;15.30;1.00;;;;;;5096699;28;20515;-61
2023/09/15 07:26:26;;;;;;;8.87;5.37;;;15.50;1.00;;;;;;5096713;28;20464;-60
2023/09/15 07:28:54;;;;;;;8.20;4.60;;;15.80;1.00;;;;;;5096524;28;20838;-60
2023/09/15 07:31:21;;;;;;;6.70;5.30;;;16.00;99.90;;;;;;5096313;28;20583;-60
2023/09/15 07:33:50;;;;;;;6.70;4.60;;;16.30;99.90;;;;;;5096164;28;20445;-61
2023/09/15 07:36:17;;;;;;;9.90;4.77;;;16.50;99.90;;;;;;5096325;28;20467;-60
2023/09/15 07:38:46;;;;;;;8.33;4.20;;;16.50;1.00;;;;;;5096920;28;20861;-61
2023/09/15 07:41:15;;;;;;;8.00;3.97;;;16.40;99.90;;;;;;5112765;28;20487;-60
2023/09/15 07:43:42;;;;;;;5.60;3.93;;;16.60;1.00;;;;;;5117208;28;20466;-61
2023/09/15 07:46:10;;;;;;;8.00;4.10;;;16.90;2.50;;;;;;5116754;28;20459;-60
2023/09/15 07:48:38;;;;;;;7.83;4.57;;;17.20;1.00;;;;;;5117776;28;20820;-61
2023/09/15 07:51:06;;;;;;;6.90;4.30;;;17.40;99.90;;;;;;5117706;28;20455;-59
2023/09/15 07:53:34;;;;;;;5.80;4.27;;;17.50;99.90;;;;;;5116162;28;20455;-61
2023/09/15 07:56:01;;;;;;;7.17;3.97;;;17.60;99.90;;;;;;5116494;28;20542;-60
2023/09/15 07:58:29;;;;;;;6.40;4.60;;;17.60;99.90;;;;;;5116871;28;20927;-60
2023/09/15 08:00:57;;;;;;;5.60;4.30;;;17.80;1.00;;;;;;5116310;28;20554;-60
2023/09/15 08:03:24;;;;;;;6.03;4.73;;;18.20;1.00;;;;;;5117201;28;20806;-61
2023/09/15 08:05:51;;;;;;;5.83;3.77;;;18.40;1.00;;;;;;5117731;28;20578;-61
2023/09/15 08:08:20;;;;;;;4.83;3.70;;;18.60;99.90;;;;;;5118341;28;20459;-60
2023/09/15 08:10:48;;;;;;;8.07;4.40;;;18.60;99.90;;;;;;5119475;28;20498;-61
2023/09/15 08:13:15;;;;;;;5.77;4.00;;;18.40;99.90;;;;;;5118300;28;20514;-60
2023/09/15 08:15:43;;;;;;;7.60;3.63;;;18.60;1.00;;;;;;5116753;28;20542;-61
2023/09/15 08:18:10;;;;;;;6.90;3.90;;;18.90;99.90;;;;;;5117073;28;20504;-60
2023/09/15 08:20:37;;;;;;;6.33;4.50;;;19.30;99.90;;;;;;5117535;28;20510;-60
2023/09/15 08:23:05;;;;;;;4.47;4.07;;;19.20;1.00;;;;;;5117277;28;20563;-60
2023/09/15 08:25:34;;;;;;;5.93;3.93;;;19.60;99.90;;;;;;5117989;28;20483;-60
2023/09/15 08:28:02;;;;;;;4.53;3.70;;;19.90;1.00;;;;;;5118680;28;20727;-61
2023/09/15 08:30:30;;;;;;;8.17;3.60;;;20.20;84.40;;;;;;5119066;28;20889;-59
2023/09/15 08:32:58;;;;;;;8.43;3.40;;;20.50;1.00;;;;;;5118929;28;20467;-60
2023/09/15 08:35:25;;;;;;;4.40;3.50;;;20.80;1.00;;;;;;5119071;28;20485;-60
2023/09/15 08:37:53;;;;;;;6.50;4.20;;;20.60;1.00;;;;;;5119506;28;20458;-60
2023/09/15 08:40:20;;;;;;;3.67;3.27;;;20.80;1.00;;;;;;5118287;28;20581;-60
2023/09/15 08:42:49;;;;;;;5.00;3.50;;;20.60;99.90;;;;;;5118953;28;20510;-60
2023/09/15 08:45:19;;;;;;;8.67;3.70;;;20.90;1.00;;;;;;5118498;28;20874;-61
2023/09/15 08:47:51;;;;;;;6.10;3.40;;;21.30;99.90;;;;;;5119122;28;20478;-60
2023/09/15 08:50:18;;;;;;;4.70;3.60;;;21.50;1.00;;;;;;5118368;28;20752;-60
2023/09/15 08:52:46;;;;;;;5.17;3.40;;;21.70;99.90;;;;;;5118760;28;20495;-61
2023/09/15 08:55:14;;;;;;;3.73;3.43;;;21.90;99.90;;;;;;5117185;28;20777;-60
2023/09/15 08:57:43;;;;;;;5.07;3.30;;;22.10;99.90;;;;;;5117242;28;20827;-60
2023/09/15 09:00:13;;;;;;;5.43;3.87;;;22.30;99.90;;;;;;5116581;28;20491;-60
2023/09/15 09:02:40;;;;;;;7.37;3.17;;;22.40;99.90;;;;;;5116185;28;20924;-60
2023/09/15 09:05:09;;;;;;;4.20;3.20;;;22.40;99.90;;;;;;5115123;28;20774;-60
2023/09/15 09:07:38;;;;;;;3.33;2.70;;;22.50;99.90;;;;;;5115299;28;20828;-60
2023/09/15 09:10:07;;;;;;;4.30;3.60;;;22.60;99.90;;;;;;5115756;28;20918;-60
2023/09/15 09:12:34;;;;;;;4.80;3.60;;;22.70;99.90;;;;;;5115225;28;20487;-62
2023/09/15 09:15:02;;;;;;;4.40;3.53;;;23.20;73.60;;;;;;5115240;28;20460;-60
2023/09/15 09:17:32;;;;;;;6.70;2.97;;;23.20;81.90;;;;;;5114901;28;20463;-60
2023/09/15 09:19:59;;;;;;;9.33;4.00;;;23.30;24.60;;;;;;5116349;28;20491;-60
2023/09/15 09:22:26;;;;;;;4.87;3.53;;;23.30;99.90;;;;;;5116303;28;20524;-59
2023/09/15 09:24:55;;;;;;;5.00;3.60;;;23.50;51.70;;;;;;5117048;28;20886;-59
2023/09/15 09:27:22;;;;;;;4.20;3.00;;;23.50;43.40;;;;;;5118367;28;20441;-60
2023/09/15 09:29:49;;;;;;;4.80;3.17;;;23.80;1.00;;;;;;5117639;28;20546;-60
2023/09/15 09:32:17;;;;;;;3.90;3.10;;;24.00;1.00;;;;;;5117114;28;20562;-60
2023/09/15 09:34:50;;;;;;;5.37;3.03;;;24.20;1.00;;;;;;5117727;28;20448;-60
2023/09/15 09:37:18;;;;;;;3.77;2.67;;;24.20;1.00;;;;;;5118215;28;20483;-60
2023/09/15 09:39:48;;;;;;;4.47;3.60;;;24.40;1.00;;;;;;5117724;28;20919;-59
2023/09/15 09:42:15;;;;;;;4.53;4.00;;;24.50;1.00;;;;;;5117925;28;20486;-60
2023/09/15 09:44:43;;;;;;;3.90;3.40;;;24.70;1.00;;;;;;5117636;28;20873;-60
2023/09/15 09:47:12;;;;;;;3.97;3.60;;;24.80;1.00;;;;;;5117725;28;20506;-60
2023/09/15 09:49:41;;;;;;;3.60;3.20;;;24.80;1.00;;;;;;5117743;28;20554;-59
2023/09/15 09:52:13;;;;;;;4.27;3.23;;;25.00;1.00;;;;;;5117307;28;20554;-60
2023/09/15 09:54:41;;;;;;;3.73;3.33;;;25.20;1.00;;;;;;5117222;28;20546;-60
2023/09/15 09:57:08;;;;;;;4.20;3.10;;;25.30;1.00;;;;;;5118134;28;20940;-59
2023/09/15 09:59:37;;;;;;;5.20;3.47;;;25.50;1.00;;;;;;5117528;28;20941;-60
2023/09/15 10:02:05;;;;;;;4.20;3.10;;;25.60;1.00;;;;;;5117434;28;20524;-60
2023/09/15 10:04:33;;;;;;;5.23;3.60;;;25.70;1.00;;;;;;5117627;28;20491;-60
2023/09/15 10:07:01;;;;;;;3.93;3.00;;;25.90;1.00;;;;;;5117722;28;20463;-60
2023/09/15 10:09:31;;;;;;;3.87;2.73;;;26.10;1.00;;;;;;5117648;28;20452;-60
2023/09/15 10:11:59;;;;;;;3.47;3.10;;;26.50;1.00;;;;;;5116904;28;20549;-60
2023/09/15 10:14:28;;;;;;;3.17;2.67;;;26.60;1.00;;;;;;5117045;28;20455;-60
2023/09/15 10:16:57;;;;;;;5.20;3.43;;;26.50;99.90;;;;;;5117195;28;20491;-61
2023/09/15 10:19:25;;;;;;;3.53;3.00;;;26.40;99.90;;;;;;5117567;28;20504;-60
2023/09/15 10:21:53;;;;;;;3.80;3.40;;;26.30;99.90;;;;;;5117365;28;20947;-60
2023/09/15 10:24:21;;;;;;;4.10;2.87;;;26.30;99.90;;;;;;5117389;28;20475;-60
2023/09/15 10:26:51;;;;;;;5.53;2.97;;;26.40;99.90;;;;;;5117782;28;20456;-61
2023/09/15 10:29:18;;;;;;;3.70;2.93;;;26.30;99.90;;;;;;5117201;28;20903;-60
2023/09/15 10:31:46;;;;;;;3.70;3.10;;;26.50;99.90;;;;;;5116623;28;20540;-60
2023/09/15 10:34:15;;;;;;;3.03;2.60;;;26.50;99.90;;;;;;5117386;28;20736;-60
2023/09/15 10:36:44;;;;;;;3.30;3.00;;;26.70;99.90;;;;;;5117786;28;20503;-60
2023/09/15 10:39:13;;;;;;;3.97;3.27;;;26.40;99.90;;;;;;5117186;28;20494;-60
2023/09/15 10:41:41;;;;;;;4.03;3.30;;;26.30;99.90;;;;;;5116566;28;20962;-59
2023/09/15 10:44:10;;;;;;;3.13;2.83;;;26.60;99.90;;;;;;5117736;28;20550;-59
2023/09/15 10:46:38;;;;;;;3.13;2.83;;;26.70;99.90;;;;;;5117362;28;20549;-60
2023/09/15 10:49:16;;;;;;;3.77;2.80;;;26.90;99.90;;;;;;5121301;28;20797;-59
2023/09/15 10:51:57;;;;;;;3.07;2.77;;;27.20;99.90;;;;;;5120063;28;20455;-60
2023/09/15 10:54:31;;;;;;;3.70;2.37;;;27.10;99.90;;;;;;5099871;28;20456;-60
2023/09/15 10:56:59;;;;;;;5.70;2.73;;;27.20;99.90;;;;;;5098850;28;20543;-60
2023/09/15 10:59:29;;;;;;;3.30;3.00;;;27.40;99.90;;;;;;5100257;28;20826;-60
2023/09/15 11:01:57;;;;;;;3.87;3.10;;;27.20;99.90;;;;;;5100246;28;20867;-60
2023/09/15 11:04:25;;;;;;;3.83;2.93;;;27.10;99.90;;;;;;5100625;28;20548;-60
2023/09/15 11:06:54;;;;;;;4.23;2.67;;;27.30;99.90;;;;;;5100574;28;20528;-60
2023/09/15 11:09:22;;;;;;;3.33;3.00;;;26.80;99.90;;;;;;5100157;28;20543;-61
2023/09/15 11:11:51;;;;;;;3.57;2.67;;;27.00;99.90;;;;;;5099890;28;20917;-61
2023/09/15 11:14:20;;;;;;;3.70;2.33;;;27.20;99.90;;;;;;5100191;28;20559;-60
2023/09/15 11:16:51;;;;;;;3.70;3.20;;;27.00;99.90;;;;;;5100701;28;20743;-59
2023/09/15 11:19:19;;;;;;;3.90;2.97;;;27.20;1.00;;;;;;5099677;28;20555;-59
2023/09/15 11:21:48;;;;;;;5.17;3.37;;;27.40;99.90;;;;;;5099683;28;20458;-59
2023/09/15 11:24:16;;;;;;;3.33;3.03;;;27.40;99.90;;;;;;5100150;28;20460;-59
2023/09/15 11:26:47;;;;;;;3.27;2.80;;;27.60;99.90;;;;;;5099809;28;20492;-60
2023/09/15 11:29:15;;;;;;;5.20;2.83;;;27.70;99.90;;;;;;5098901;28;20506;-60
2023/09/15 11:31:43;;;;;;;3.50;2.60;;;27.90;99.90;;;;;;5099126;28;20472;-60
2023/09/15 11:34:15;;;;;;;2.50;2.30;;;27.90;99.90;;;;;;5112071;28;20561;-60
2023/09/15 11:36:44;;;;;;;3.70;3.00;;;28.00;99.90;;;;;;5099682;28;20456;-60
2023/09/15 11:39:12;;;;;;;5.17;3.23;;;28.20;99.90;;;;;;5098592;28;20460;-60
2023/09/15 11:41:40;;;;;;;3.47;3.17;;;28.30;99.90;;;;;;5098644;28;20492;-60
2023/09/15 11:44:09;;;;;;;2.83;2.53;;;28.20;99.90;;;;;;5099823;28;20456;-60
2023/09/15 11:46:40;;;;;;;3.97;2.90;;;28.20;99.90;;;;;;5099510;28;20944;-59
2023/09/15 11:49:07;;;;;;;3.20;2.90;;;28.30;99.90;;;;;;5098947;28;20456;-60
2023/09/15 11:51:38;;;;;;;3.03;2.70;;;28.20;99.90;;;;;;5101897;28;20873;-60
2023/09/15 11:54:06;;;;;;;3.87;2.97;;;28.30;99.90;;;;;;5119459;28;20451;-60
2023/09/15 11:56:34;;;;;;;4.37;2.73;;;28.30;99.90;;;;;;5118454;28;20915;-60
2023/09/15 11:59:02;;;;;;;3.00;2.80;;;28.30;99.90;;;;;;5118285;28;20724;-60
2023/09/15 12:01:31;;;;;;;2.87;2.43;;;28.30;99.90;;;;;;5118096;28;20487;-60
2023/09/15 12:03:59;;;;;;;3.43;2.80;;;28.40;99.90;;;;;;5117960;28;20482;-60
2023/09/15 12:06:27;;;;;;;4.60;2.90;;;28.60;99.90;;;;;;5118637;28;20489;-60
2023/09/15 12:08:57;;;;;;;3.10;2.70;;;28.80;99.90;;;;;;5116733;28;20940;-60
2023/09/15 12:11:24;;;;;;;3.10;2.80;;;28.60;99.90;;;;;;5118514;28;20833;-59
2023/09/15 12:13:54;;;;;;;3.10;2.83;;;28.70;99.90;;;;;;5118969;28;20896;-59
2023/09/15 12:16:27;;;;;;;3.20;2.90;;;28.60;99.90;;;;;;5117382;28;20455;-60
2023/09/15 12:18:55;;;;;;;3.10;2.60;;;28.20;99.90;;;;;;5115742;28;20511;-60
2023/09/15 12:21:26;;;;;;;3.33;3.03;;;28.50;99.90;;;;;;5116609;28;20880;-60
2023/09/15 12:23:55;;;;;;;3.27;3.07;;;28.60;99.90;;;;;;5117016;28;20459;-60
2023/09/15 12:26:24;;;;;;;3.27;2.97;;;28.80;99.90;;;;;;5116880;28;20586;-60
2023/09/15 12:28:53;;;;;;;2.90;2.70;;;28.80;99.90;;;;;;5114820;28;20463;-61
2023/09/15 12:31:21;;;;;;;3.30;2.93;;;28.80;99.90;;;;;;5115594;28;20459;-60
2023/09/15 12:33:52;;;;;;;3.50;2.80;;;29.10;99.90;;;;;;5116313;28;20455;-60
2023/09/15 12:36:21;;;;;;;4.30;3.03;;;29.20;99.90;;;;;;5115947;28;20501;-59
2023/09/15 12:38:50;;;;;;;3.60;3.13;;;29.10;99.90;;;;;;5116133;28;20922;-60
2023/09/15 12:41:20;;;;;;;2.63;2.43;;;28.80;99.90;;;;;;5116168;28;20487;-59
2023/09/15 12:43:47;;;;;;;3.50;3.13;;;28.70;99.90;;;;;;5117461;28;20512;-60
2023/09/15 12:46:14;;;;;;;5.00;3.00;;;28.80;99.90;;;;;;5117646;28;20491;-60
2023/09/15 12:48:42;;;;;;;4.00;2.83;;;28.50;99.90;;;;;;5118651;28;20861;-60
2023/09/15 12:51:11;;;;;;;5.17;3.30;;;29.00;99.90;;;;;;5118415;28;20898;-59
2023/09/15 12:53:38;;;;;;;3.50;3.03;;;28.80;99.90;;;;;;5118666;28;20459;-60
2023/09/15 12:56:06;;;;;;;3.10;2.80;;;28.80;99.90;;;;;;5118397;28;20462;-59
2023/09/15 12:58:35;;;;;;;3.50;3.20;;;28.70;99.90;;;;;;5118885;28;20537;-59